Time;durP1;ratioP1;P1;durP2;ratioP2;P2;SDS_P1;SDS_P2;PMS_P1;PMS_P2;Temp;Humidity;BMP_temperature;BMP_pressure;BME280_temperature;BME280_humidity;BME280_pressure;Samples;Min_cycle;Max_cycle;Signal;HPM_P1;HPM_P2
2022/02/21 00:00:13;;;;;;;1.60;1.20;;;7.20;98.20;;;;;;5028921;28;20463;-72
2022/02/21 00:02:42;;;;;;;1.60;1.20;;;7.30;98.20;;;;;;5029032;28;20897;-72
2022/02/21 00:05:11;;;;;;;1.60;1.20;;;7.20;98.20;;;;;;5028430;28;20974;-72
2022/02/21 00:07:37;;;;;;;1.60;1.23;;;7.20;98.20;;;;;;5027813;28;20479;-73
2022/02/21 00:10:05;;;;;;;1.60;1.30;;;7.20;98.20;;;;;;5028309;28;20470;-73
2022/02/21 00:12:32;;;;;;;1.60;1.23;;;7.20;98.20;;;;;;5031043;28;20561;-72
2022/02/21 00:14:59;;;;;;;1.60;1.20;;;7.10;98.20;;;;;;5027298;28;20470;-74
2022/02/21 00:17:25;;;;;;;1.60;1.30;;;7.10;98.20;;;;;;5028648;28;20483;-73
2022/02/21 00:19:52;;;;;;;1.60;1.27;;;7.10;98.20;;;;;;5029294;22;20533;-72
2022/02/21 00:22:21;;;;;;;1.60;1.30;;;7.10;98.20;;;;;;4994869;28;20468;-72
2022/02/21 00:24:47;;;;;;;1.60;1.30;;;7.10;98.20;;;;;;4989401;28;20469;-72
2022/02/21 00:27:14;;;;;;;1.60;1.20;;;7.00;98.20;;;;;;4991464;28;20457;-72
2022/02/21 00:29:41;;;;;;;1.60;1.20;;;7.00;98.20;;;;;;4988955;28;20487;-72
2022/02/21 00:32:09;;;;;;;1.60;1.20;;;7.00;98.20;;;;;;4988719;28;20473;-72
2022/02/21 00:34:36;;;;;;;1.60;1.27;;;7.00;98.20;;;;;;4987583;28;20469;-72
2022/02/21 00:37:03;;;;;;;1.60;1.30;;;6.90;98.20;;;;;;4989653;28;20949;-72
2022/02/21 00:39:31;;;;;;;1.60;1.20;;;6.90;98.20;;;;;;4988164;28;20519;-72
2022/02/21 00:41:58;;;;;;;1.60;1.33;;;6.90;98.20;;;;;;4989449;28;20469;-72
2022/02/21 00:44:24;;;;;;;1.60;1.30;;;6.80;98.20;;;;;;4988767;28;20976;-72
2022/02/21 00:46:51;;;;;;;1.60;1.30;;;6.80;98.20;;;;;;4989178;28;20472;-72
2022/02/21 00:49:18;;;;;;;1.60;1.30;;;6.80;98.20;;;;;;4989063;28;20829;-72
2022/02/21 00:51:45;;;;;;;1.60;1.20;;;6.80;98.20;;;;;;4998153;28;20453;-72
2022/02/21 00:54:12;;;;;;;1.60;1.40;;;6.90;98.20;;;;;;4988391;28;20992;-72
2022/02/21 00:56:40;;;;;;;1.60;1.20;;;6.90;98.20;;;;;;4995225;28;20470;-71
2022/02/21 00:59:07;;;;;;;1.60;1.20;;;6.90;98.20;;;;;;4991166;28;20495;-72
2022/02/21 01:01:34;;;;;;;1.60;1.40;;;6.90;98.20;;;;;;4990922;28;20464;-71
2022/02/21 01:04:01;;;;;;;1.60;1.40;;;6.80;98.20;;;;;;4992840;28;20465;-71
2022/02/21 01:06:27;;;;;;;1.60;1.30;;;6.80;98.20;;;;;;4997857;28;20464;-71
2022/02/21 01:08:54;;;;;;;1.60;1.30;;;6.80;98.20;;;;;;4988914;28;20481;-71
2022/02/21 01:11:21;;;;;;;1.70;1.40;;;6.70;98.20;;;;;;4991856;28;20467;-71
2022/02/21 01:13:49;;;;;;;1.60;1.20;;;6.70;98.20;;;;;;4988633;28;20789;-71
2022/02/21 01:16:16;;;;;;;1.60;1.30;;;6.70;98.20;;;;;;4990860;28;20467;-71
2022/02/21 01:18:42;;;;;;;1.60;1.30;;;6.60;98.20;;;;;;4993796;28;20491;-72
2022/02/21 01:21:09;;;;;;;1.60;1.40;;;6.60;98.20;;;;;;4991410;28;20550;-71
2022/02/21 01:23:40;;;;;;;1.60;1.20;;;6.60;98.20;;;;;;4982742;28;20838;-71
2022/02/21 01:26:06;;;;;;;1.60;1.20;;;6.50;98.20;;;;;;4970912;28;20484;-71
2022/02/21 01:28:33;;;;;;;1.60;1.30;;;6.40;98.20;;;;;;4969422;28;20854;-71
2022/02/21 01:31:02;;;;;;;1.60;1.20;;;6.40;98.20;;;;;;4969078;28;20485;-72
2022/02/21 01:33:29;;;;;;;1.63;1.30;;;6.40;98.20;;;;;;4970050;28;20466;-72
2022/02/21 01:35:56;;;;;;;1.60;1.30;;;6.30;98.20;;;;;;4969740;28;20470;-71
2022/02/21 01:38:23;;;;;;;1.60;1.30;;;6.30;98.20;;;;;;4969580;28;20490;-72
2022/02/21 01:40:50;;;;;;;1.60;1.30;;;6.30;98.20;;;;;;4968530;28;20563;-72
2022/02/21 01:43:17;;;;;;;1.60;1.30;;;6.30;98.20;;;;;;4966612;28;20962;-71
2022/02/21 01:45:44;;;;;;;1.60;1.20;;;6.20;98.20;;;;;;4968137;28;20462;-71
2022/02/21 01:48:13;;;;;;;1.60;1.30;;;6.20;98.20;;;;;;4969983;28;20482;-71
2022/02/21 01:50:40;;;;;;;1.60;1.30;;;6.20;98.20;;;;;;4972399;28;20478;-72
2022/02/21 01:53:07;;;;;;;1.60;1.30;;;6.10;98.20;;;;;;4971535;28;20977;-71
2022/02/21 01:55:34;;;;;;;1.60;1.30;;;6.10;98.20;;;;;;4969405;28;20477;-72
2022/02/21 01:58:01;;;;;;;1.60;1.30;;;6.10;98.20;;;;;;4968911;28;20474;-72
2022/02/21 02:00:28;;;;;;;1.60;1.30;;;6.00;98.20;;;;;;4967770;28;20858;-72
2022/02/21 02:02:55;;;;;;;1.60;1.30;;;6.00;98.20;;;;;;4975307;28;20852;-72
2022/02/21 02:05:25;;;;;;;1.60;1.30;;;6.00;98.20;;;;;;4968935;28;20469;-72
2022/02/21 02:07:53;;;;;;;1.67;1.40;;;6.00;98.20;;;;;;4973527;28;20482;-72
2022/02/21 02:10:20;;;;;;;1.60;1.30;;;6.00;98.20;;;;;;4968045;28;20950;-72
2022/02/21 02:12:47;;;;;;;1.60;1.30;;;6.00;98.20;;;;;;4974005;28;20473;-72
2022/02/21 02:15:15;;;;;;;1.60;1.30;;;6.00;98.20;;;;;;4968388;28;20849;-72
2022/02/21 02:17:42;;;;;;;1.60;1.20;;;6.00;98.20;;;;;;4980077;28;20491;-72
2022/02/21 02:20:10;;;;;;;1.67;1.40;;;5.90;98.20;;;;;;4974509;28;20493;-72
2022/02/21 02:22:39;;;;;;;1.60;1.30;;;5.90;98.20;;;;;;4976247;28;20481;-72
2022/02/21 02:25:06;;;;;;;1.60;1.30;;;5.80;98.20;;;;;;4971429;28;20489;-72
2022/02/21 02:27:33;;;;;;;1.60;1.30;;;5.80;98.20;;;;;;4971820;28;20544;-72
2022/02/21 02:30:02;;;;;;;1.60;1.30;;;5.80;98.20;;;;;;4971782;28;20485;-72
2022/02/21 02:32:29;;;;;;;1.70;1.40;;;5.80;98.20;;;;;;4971090;28;20478;-72
2022/02/21 02:34:57;;;;;;;1.60;1.30;;;5.70;98.20;;;;;;4970852;28;20924;-72
2022/02/21 02:37:26;;;;;;;1.60;1.40;;;5.70;98.20;;;;;;4972410;28;20528;-72
2022/02/21 02:39:54;;;;;;;1.60;1.30;;;5.80;98.20;;;;;;4971720;28;21049;-72
2022/02/21 02:42:22;;;;;;;1.63;1.40;;;5.80;98.20;;;;;;4971707;28;20500;-72
2022/02/21 02:44:49;;;;;;;1.63;1.30;;;5.80;98.20;;;;;;4966009;28;21050;-72
2022/02/21 02:47:16;;;;;;;1.70;1.50;;;5.80;98.20;;;;;;4974330;28;20481;-72
2022/02/21 02:49:44;;;;;;;1.60;1.30;;;5.90;98.20;;;;;;4988077;28;20648;-72
2022/02/21 02:52:12;;;;;;;1.63;1.40;;;5.90;98.20;;;;;;4958410;28;20485;-71
2022/02/21 02:54:39;;;;;;;1.60;1.30;;;5.90;98.20;;;;;;4970016;28;20481;-71
2022/02/21 02:57:09;;;;;;;1.70;1.47;;;5.90;98.20;;;;;;4981803;28;20984;-71
2022/02/21 02:59:36;;;;;;;1.60;1.30;;;5.80;98.20;;;;;;4976515;28;20536;-71
2022/02/21 03:02:03;;;;;;;1.60;1.30;;;5.80;98.20;;;;;;4972383;28;20465;-70
2022/02/21 03:04:30;;;;;;;1.60;1.30;;;5.70;98.20;;;;;;4970976;28;20466;-71
2022/02/21 03:06:58;;;;;;;1.60;1.30;;;5.60;98.20;;;;;;4971296;28;20533;-70
2022/02/21 03:09:25;;;;;;;1.63;1.40;;;5.60;98.20;;;;;;4969951;28;21001;-71
2022/02/21 03:11:52;;;;;;;1.60;1.33;;;5.60;98.20;;;;;;4972431;28;20501;-71
2022/02/21 03:14:21;;;;;;;1.60;1.30;;;5.60;98.20;;;;;;4979310;28;20987;-71
2022/02/21 03:16:48;;;;;;;1.60;1.30;;;5.50;98.20;;;;;;4981157;28;20844;-70
2022/02/21 03:19:15;;;;;;;1.60;1.30;;;5.50;98.20;;;;;;4973079;28;20925;-71
2022/02/21 03:21:42;;;;;;;1.60;1.30;;;5.50;98.20;;;;;;4987214;28;20498;-70
2022/02/21 03:24:08;;;;;;;1.60;1.30;;;5.50;98.20;;;;;;4998158;28;20472;-71
2022/02/21 03:26:35;;;;;;;1.60;1.30;;;5.50;98.20;;;;;;4991554;28;20489;-71
2022/02/21 03:29:02;;;;;;;1.60;1.30;;;5.50;98.20;;;;;;5002638;28;20660;-71
2022/02/21 03:31:30;;;;;;;1.60;1.40;;;5.50;98.20;;;;;;4989161;28;20483;-71
2022/02/21 03:33:57;;;;;;;1.70;1.50;;;5.40;98.20;;;;;;5000172;28;20469;-71
2022/02/21 03:36:23;;;;;;;1.60;1.20;;;5.40;98.20;;;;;;4991040;28;20630;-71
2022/02/21 03:38:50;;;;;;;1.60;1.30;;;5.40;98.20;;;;;;4990423;28;20488;-71
2022/02/21 03:41:17;;;;;;;1.60;1.30;;;5.40;98.20;;;;;;4990660;28;20861;-71
2022/02/21 03:43:44;;;;;;;1.60;1.33;;;5.40;98.20;;;;;;4984030;28;20467;-71
2022/02/21 03:46:11;;;;;;;1.60;1.30;;;5.40;98.20;;;;;;4985948;28;20484;-71
2022/02/21 03:48:39;;;;;;;1.60;1.30;;;5.30;98.20;;;;;;5007175;28;20849;-70
2022/02/21 03:51:06;;;;;;;1.60;1.30;;;5.40;98.20;;;;;;5002504;28;20464;-70
2022/02/21 03:53:34;;;;;;;1.70;1.50;;;5.30;98.20;;;;;;4990384;28;20476;-71
2022/02/21 03:56:01;;;;;;;2.10;1.90;;;5.20;98.20;;;;;;4994503;28;20461;-70
2022/02/21 03:58:28;;;;;;;1.63;1.40;;;5.00;98.20;;;;;;4994700;28;20496;-70
2022/02/21 04:00:55;;;;;;;1.63;1.30;;;4.90;98.20;;;;;;4989300;28;21020;-70
2022/02/21 04:03:22;;;;;;;1.60;1.30;;;4.70;98.20;;;;;;4990235;28;20493;-70
2022/02/21 04:05:50;;;;;;;1.60;1.40;;;4.70;98.20;;;;;;4989443;28;20465;-70
2022/02/21 04:08:17;;;;;;;1.60;1.30;;;4.60;98.20;;;;;;4987818;28;20484;-71
2022/02/21 04:10:44;;;;;;;1.67;1.40;;;4.40;98.20;;;;;;4988934;28;20473;-70
2022/02/21 04:13:11;;;;;;;1.60;1.43;;;4.30;98.20;;;;;;4995376;28;20862;-70
2022/02/21 04:15:38;;;;;;;1.60;1.30;;;4.20;98.20;;;;;;4989169;28;20519;-69
2022/02/21 04:18:05;;;;;;;1.70;1.43;;;4.10;98.20;;;;;;4989088;28;20553;-69
2022/02/21 04:20:32;;;;;;;1.60;1.30;;;4.00;98.20;;;;;;4995159;28;20876;-69
2022/02/21 04:23:00;;;;;;;1.70;1.43;;;3.90;98.20;;;;;;4991307;28;20492;-69
2022/02/21 04:25:27;;;;;;;1.63;1.30;;;3.80;98.20;;;;;;4988890;28;20465;-69
2022/02/21 04:27:56;;;;;;;1.60;1.30;;;3.80;98.20;;;;;;4988953;28;20890;-69
2022/02/21 04:30:24;;;;;;;1.67;1.50;;;3.70;98.20;;;;;;4989356;28;20966;-69
2022/02/21 04:32:53;;;;;;;1.67;1.37;;;3.70;98.20;;;;;;4986027;28;20548;-69
2022/02/21 04:35:21;;;;;;;1.60;1.40;;;3.70;98.20;;;;;;4987113;28;20461;-69
2022/02/21 04:37:49;;;;;;;1.70;1.40;;;3.70;98.20;;;;;;4993884;28;20468;-68
2022/02/21 04:40:19;;;;;;;1.70;1.50;;;3.70;98.20;;;;;;4988429;28;20493;-68
2022/02/21 04:42:48;;;;;;;1.67;1.47;;;3.70;98.20;;;;;;4992902;28;20837;-68
2022/02/21 04:45:15;;;;;;;1.60;1.40;;;3.70;98.20;;;;;;4989982;28;20505;-68
2022/02/21 04:47:42;;;;;;;1.60;1.40;;;3.70;98.20;;;;;;4993087;28;20996;-68
2022/02/21 04:50:10;;;;;;;1.60;1.37;;;3.60;98.20;;;;;;5003097;28;20484;-68
2022/02/21 04:52:38;;;;;;;1.67;1.40;;;3.60;98.20;;;;;;4992278;28;20852;-68
2022/02/21 04:55:07;;;;;;;1.70;1.40;;;3.60;98.20;;;;;;4991837;28;20865;-70
2022/02/21 04:57:36;;;;;;;1.67;1.40;;;3.70;98.20;;;;;;4987423;28;20978;-70
2022/02/21 05:00:05;;;;;;;1.70;1.50;;;3.70;98.20;;;;;;4988011;28;20528;-70
2022/02/21 05:02:32;;;;;;;1.60;1.40;;;3.80;98.20;;;;;;4996421;28;20464;-70
2022/02/21 05:04:59;;;;;;;1.60;1.40;;;3.80;98.20;;;;;;4989362;28;20592;-70
2022/02/21 05:07:26;;;;;;;1.70;1.47;;;3.90;98.20;;;;;;4991052;28;20490;-70
2022/02/21 05:09:53;;;;;;;1.63;1.40;;;3.90;98.20;;;;;;4994576;28;20488;-71
2022/02/21 05:12:19;;;;;;;1.63;1.30;;;3.80;98.20;;;;;;4990372;28;20487;-69
2022/02/21 05:14:47;;;;;;;1.70;1.40;;;3.80;98.20;;;;;;4990901;28;20472;-69
2022/02/21 05:17:14;;;;;;;1.63;1.50;;;3.70;98.20;;;;;;4989436;28;20477;-69
2022/02/21 05:19:41;;;;;;;1.67;1.40;;;3.70;98.20;;;;;;4994989;28;20873;-69
2022/02/21 05:22:08;;;;;;;1.67;1.40;;;3.70;98.20;;;;;;4994487;28;20523;-70
2022/02/21 05:24:34;;;;;;;1.70;1.50;;;3.70;98.20;;;;;;4993122;28;20469;-70
2022/02/21 05:27:01;;;;;;;1.67;1.43;;;3.70;98.20;;;;;;4999443;28;20491;-71
2022/02/21 05:29:28;;;;;;;1.70;1.40;;;3.80;98.20;;;;;;4996632;28;20481;-73
2022/02/21 05:31:56;;;;;;;1.70;1.40;;;3.80;98.20;;;;;;4988821;28;20474;-70
2022/02/21 05:34:23;;;;;;;1.63;1.40;;;3.80;98.20;;;;;;4989600;28;20500;-71
2022/02/21 05:36:50;;;;;;;1.60;1.47;;;3.90;98.20;;;;;;4993816;28;20467;-70
2022/02/21 05:39:17;;;;;;;1.60;1.40;;;3.90;98.20;;;;;;4989558;28;20477;-70
2022/02/21 05:41:44;;;;;;;1.67;1.50;;;3.90;98.20;;;;;;4986675;28;20975;-72
2022/02/21 05:44:11;;;;;;;1.70;1.60;;;3.80;98.20;;;;;;4997914;28;20857;-71
2022/02/21 05:46:38;;;;;;;1.70;1.47;;;3.80;98.20;;;;;;4991939;28;20570;-72
2022/02/21 05:49:08;;;;;;;1.60;1.30;;;3.70;98.20;;;;;;5004508;28;20491;-72
2022/02/21 05:51:35;;;;;;;1.63;1.40;;;3.70;98.20;;;;;;5005081;28;21186;-71
2022/02/21 05:54:02;;;;;;;1.70;1.40;;;3.60;98.20;;;;;;4992983;28;20468;-73
2022/02/21 05:56:30;;;;;;;1.67;1.40;;;3.60;98.20;;;;;;4996076;28;20526;-72
2022/02/21 05:58:58;;;;;;;1.70;1.57;;;3.70;98.20;;;;;;4993675;28;20587;-72
2022/02/21 06:01:25;;;;;;;1.70;1.57;;;3.70;98.20;;;;;;4995680;28;20525;-72
2022/02/21 06:03:51;;;;;;;1.70;1.50;;;3.60;98.20;;;;;;4993599;28;20465;-73
2022/02/21 06:06:20;;;;;;;1.63;1.40;;;3.60;98.20;;;;;;4994742;28;20493;-72
2022/02/21 06:08:47;;;;;;;1.63;1.47;;;3.60;98.20;;;;;;5004452;28;21012;-71
2022/02/21 06:11:14;;;;;;;1.70;1.40;;;3.50;98.20;;;;;;4994364;28;20495;-72
2022/02/21 06:13:41;;;;;;;1.63;1.40;;;3.50;98.20;;;;;;4992965;28;20579;-73
2022/02/21 06:16:08;;;;;;;1.67;1.40;;;3.40;98.20;;;;;;4994246;28;20512;-73
2022/02/21 06:18:35;;;;;;;1.67;1.40;;;3.40;98.20;;;;;;4989363;28;20592;-71
2022/02/21 06:21:02;;;;;;;1.63;1.30;;;3.40;98.20;;;;;;4999572;28;20488;-72
2022/02/21 06:23:31;;;;;;;1.70;1.40;;;3.30;98.20;;;;;;4991834;28;20461;-71
2022/02/21 06:25:58;;;;;;;1.70;1.50;;;3.30;98.20;;;;;;4968539;28;20469;-71
2022/02/21 06:28:25;;;;;;;1.60;1.40;;;3.30;98.20;;;;;;5006044;28;20487;-70
2022/02/21 06:30:52;;;;;;;1.70;1.40;;;3.20;98.20;;;;;;4993808;28;20465;-72
2022/02/21 06:33:19;;;;;;;1.67;1.50;;;3.10;98.20;;;;;;4989779;28;20527;-70
2022/02/21 06:35:47;;;;;;;1.63;1.40;;;3.10;98.20;;;;;;4989904;28;20464;-71
2022/02/21 06:38:14;;;;;;;1.70;1.40;;;3.10;98.20;;;;;;4996800;28;20564;-71
2022/02/21 06:40:43;;;;;;;1.70;1.50;;;3.00;98.20;;;;;;4985452;28;20547;-69
2022/02/21 06:43:11;;;;;;;1.70;1.47;;;3.00;98.20;;;;;;4990328;28;20584;-71
2022/02/21 06:45:38;;;;;;;1.60;1.40;;;3.00;98.20;;;;;;4989610;28;20457;-70
2022/02/21 06:48:07;;;;;;;1.70;1.50;;;3.00;98.20;;;;;;4986583;28;20465;-70
2022/02/21 06:50:33;;;;;;;1.63;1.40;;;3.00;98.20;;;;;;4997665;28;20463;-72
2022/02/21 06:53:00;;;;;;;1.63;1.40;;;3.10;98.20;;;;;;4990699;28;20474;-71
2022/02/21 06:55:27;;;;;;;1.63;1.40;;;3.10;98.20;;;;;;4986708;28;20469;-71
2022/02/21 06:57:55;;;;;;;1.70;1.50;;;3.10;98.20;;;;;;4991342;28;21043;-71
2022/02/21 07:00:22;;;;;;;1.60;1.40;;;3.20;98.20;;;;;;4984734;28;20555;-71
2022/02/21 07:02:49;;;;;;;1.60;1.40;;;3.20;98.20;;;;;;4982517;28;20580;-72
2022/02/21 07:05:16;;;;;;;1.60;1.40;;;3.30;98.20;;;;;;4985262;28;21011;-71
2022/02/21 07:07:43;;;;;;;1.60;1.43;;;3.30;98.20;;;;;;4984749;28;20916;-73
2022/02/21 07:10:11;;;;;;;1.70;1.40;;;3.30;98.20;;;;;;4986556;28;21273;-70
2022/02/21 07:12:39;;;;;;;1.70;1.50;;;3.40;98.20;;;;;;4986141;28;20464;-72
2022/02/21 07:15:08;;;;;;;1.70;1.40;;;3.40;98.20;;;;;;4984717;28;20465;-72
2022/02/21 07:17:39;;;;;;;1.63;1.30;;;3.50;98.20;;;;;;4984907;28;20472;-72
2022/02/21 07:20:12;;;;;;;1.60;1.40;;;3.60;98.20;;;;;;4999533;28;20496;-71
2022/02/21 07:22:39;;;;;;;1.60;1.40;;;3.70;98.20;;;;;;4988887;28;20479;-72
2022/02/21 07:25:07;;;;;;;1.67;1.40;;;3.80;98.20;;;;;;4986093;28;21042;-72
2022/02/21 07:27:42;;;;;;;1.63;1.40;;;3.80;98.20;;;;;;4986713;28;20468;-70
2022/02/21 07:30:12;;;;;;;1.70;1.50;;;3.90;98.20;;;;;;4988743;28;20507;-70
2022/02/21 07:32:39;;;;;;;1.70;1.50;;;3.90;98.20;;;;;;4981478;28;20509;-71
2022/02/21 07:35:07;;;;;;;1.70;1.40;;;4.00;98.20;;;;;;4984677;28;20488;-70
2022/02/21 07:37:34;;;;;;;1.70;1.50;;;4.10;98.20;;;;;;4991487;28;20529;-70
2022/02/21 07:40:01;;;;;;;1.67;1.40;;;4.30;98.20;;;;;;4986374;28;20487;-71
2022/02/21 07:42:28;;;;;;;1.70;1.60;;;4.40;98.20;;;;;;4984640;28;20469;-72
2022/02/21 07:44:55;;;;;;;1.70;1.50;;;4.50;98.20;;;;;;4985973;28;20465;-74
2022/02/21 07:47:23;;;;;;;1.70;1.50;;;4.50;98.20;;;;;;4992755;28;21277;-73
2022/02/21 07:49:50;;;;;;;1.67;1.40;;;4.60;98.20;;;;;;4987863;28;20489;-72
2022/02/21 07:52:17;;;;;;;1.67;1.40;;;4.70;98.20;;;;;;4995351;28;20460;-73
2022/02/21 07:54:45;;;;;;;1.70;1.60;;;4.80;98.20;;;;;;4986729;28;20504;-73
2022/02/21 07:57:11;;;;;;;1.60;1.40;;;4.90;98.20;;;;;;4988676;28;20869;-72
2022/02/21 07:59:38;;;;;;;1.70;1.50;;;4.90;98.20;;;;;;4984885;28;20488;-71
2022/02/21 08:02:06;;;;;;;1.67;1.40;;;5.00;98.20;;;;;;4990178;28;20492;-72
2022/02/21 08:04:34;;;;;;;1.60;1.40;;;5.00;98.20;;;;;;4985602;28;20480;-72
2022/02/21 08:07:01;;;;;;;1.60;1.30;;;5.10;98.20;;;;;;4983346;28;20797;-73
2022/02/21 08:09:28;;;;;;;1.77;1.67;;;5.10;98.20;;;;;;4985669;28;20485;-72
2022/02/21 08:11:57;;;;;;;1.67;1.40;;;5.20;98.20;;;;;;4984443;28;21332;-71
2022/02/21 08:14:24;;;;;;;1.60;1.40;;;5.30;98.20;;;;;;4993452;28;20553;-72
2022/02/21 08:16:51;;;;;;;1.63;1.30;;;5.40;98.20;;;;;;4991389;28;20491;-71
2022/02/21 08:19:17;;;;;;;1.60;1.30;;;5.50;98.20;;;;;;4988501;28;20496;-72
2022/02/21 08:21:46;;;;;;;1.70;1.40;;;5.50;98.20;;;;;;4981372;28;20499;-71
2022/02/21 08:24:12;;;;;;;1.60;1.30;;;5.60;98.20;;;;;;4985351;28;20465;-72
2022/02/21 08:26:39;;;;;;;1.63;1.40;;;5.60;98.20;;;;;;4985847;28;20470;-73
2022/02/21 08:29:08;;;;;;;1.63;1.37;;;5.60;98.20;;;;;;4982426;28;20495;-72
2022/02/21 08:31:34;;;;;;;1.70;1.40;;;5.60;98.20;;;;;;4977074;28;20485;-71
2022/02/21 08:34:01;;;;;;;1.60;1.30;;;5.70;98.20;;;;;;4989111;28;20879;-71
2022/02/21 08:36:28;;;;;;;1.63;1.40;;;5.80;98.20;;;;;;4984852;28;20473;-73
2022/02/21 08:38:57;;;;;;;1.60;1.30;;;5.90;98.20;;;;;;4984841;28;20485;-73
2022/02/21 08:41:23;;;;;;;1.67;1.40;;;6.00;98.20;;;;;;4985461;28;20485;-72
2022/02/21 08:43:50;;;;;;;1.60;1.40;;;6.10;98.20;;;;;;4985216;28;21007;-73
2022/02/21 08:46:17;;;;;;;1.60;1.30;;;6.20;98.20;;;;;;4986081;28;20476;-73
2022/02/21 08:48:44;;;;;;;1.70;1.40;;;6.30;98.20;;;;;;4983822;28;20489;-72
2022/02/21 08:51:11;;;;;;;1.60;1.33;;;6.40;98.20;;;;;;4991211;28;20461;-72
2022/02/21 08:53:37;;;;;;;1.67;1.40;;;6.50;98.20;;;;;;4979996;28;20539;-71
2022/02/21 08:56:06;;;;;;;1.67;1.40;;;6.60;98.20;;;;;;4987280;28;20461;-73
2022/02/21 08:58:34;;;;;;;1.60;1.30;;;6.70;98.20;;;;;;4987661;28;20493;-73
2022/02/21 09:01:01;;;;;;;1.60;1.30;;;6.70;98.20;;;;;;4980495;28;20489;-72
2022/02/21 09:03:28;;;;;;;1.60;1.30;;;6.80;98.20;;;;;;4981202;28;20469;-71
2022/02/21 09:05:55;;;;;;;1.60;1.30;;;6.90;98.20;;;;;;4988183;28;20475;-70
2022/02/21 09:08:25;;;;;;;1.60;1.20;;;7.00;98.20;;;;;;4985137;28;20488;-71
2022/02/21 09:10:53;;;;;;;1.60;1.30;;;7.10;98.20;;;;;;4984191;28;20464;-75
2022/02/21 09:13:26;;;;;;;1.60;1.30;;;7.20;97.60;;;;;;4989921;28;20469;-71
2022/02/21 09:15:53;;;;;;;1.60;1.20;;;7.30;96.80;;;;;;4977651;28;20838;-70
2022/02/21 09:18:19;;;;;;;1.60;1.30;;;7.30;96.30;;;;;;4998334;28;20497;-70
2022/02/21 09:20:46;;;;;;;1.60;1.20;;;7.40;96.30;;;;;;4989471;28;20630;-69
2022/02/21 09:23:14;;;;;;;1.60;1.20;;;7.40;96.40;;;;;;4975016;28;20576;-73
2022/02/21 09:25:42;;;;;;;1.60;1.20;;;7.60;96.30;;;;;;4986577;28;21052;-71
2022/02/21 09:28:09;;;;;;;1.60;1.20;;;7.60;95.80;;;;;;4983756;28;20469;-72
2022/02/21 09:30:38;;;;;;;1.60;1.30;;;7.70;95.70;;;;;;4983054;28;20693;-70
2022/02/21 09:33:05;;;;;;;1.60;1.20;;;7.70;94.60;;;;;;4986447;28;20560;-70
2022/02/21 09:35:32;;;;;;;1.60;1.20;;;7.80;95.00;;;;;;4981025;28;20469;-70
2022/02/21 09:37:59;;;;;;;1.60;1.40;;;7.90;94.30;;;;;;4984079;28;20464;-71
2022/02/21 09:40:25;;;;;;;1.60;1.40;;;7.90;94.30;;;;;;4983200;28;20471;-70
2022/02/21 09:42:53;;;;;;;1.60;1.27;;;8.00;93.70;;;;;;4985300;28;20499;-71
2022/02/21 09:45:21;;;;;;;1.60;1.20;;;8.30;94.50;;;;;;4982215;28;20471;-72
2022/02/21 09:47:52;;;;;;;1.60;1.17;;;8.40;93.10;;;;;;4986446;28;20508;-70
2022/02/21 09:50:19;;;;;;;1.60;1.30;;;8.40;92.90;;;;;;4987201;28;20504;-71
2022/02/21 09:52:47;;;;;;;1.60;1.33;;;8.30;93.30;;;;;;4988775;28;20468;-71
2022/02/21 09:55:15;;;;;;;1.57;1.10;;;8.30;93.00;;;;;;4984814;28;21005;-69
2022/02/21 09:57:42;;;;;;;1.60;1.30;;;8.10;94.00;;;;;;4984583;28;20544;-69
2022/02/21 10:00:11;;;;;;;1.60;1.20;;;8.00;93.50;;;;;;4983326;28;20528;-69
2022/02/21 10:02:38;;;;;;;1.60;1.20;;;7.90;93.90;;;;;;4981646;28;20592;-69
2022/02/21 10:05:17;;;;;;;1.60;1.20;;;7.80;94.10;;;;;;4983749;28;20862;-69
2022/02/21 10:07:46;;;;;;;1.60;1.20;;;7.80;94.70;;;;;;4981408;28;20493;-69
2022/02/21 10:10:19;;;;;;;1.60;1.20;;;7.70;95.10;;;;;;4983981;28;20706;-69
2022/02/21 10:12:48;;;;;;;1.57;1.20;;;7.70;95.50;;;;;;4981959;28;20471;-70
2022/02/21 10:15:18;;;;;;;1.60;1.20;;;7.70;96.00;;;;;;4983326;28;20473;-69
2022/02/21 10:17:46;;;;;;;3.47;3.17;;;7.70;96.70;;;;;;4986026;28;20900;-69
2022/02/21 10:20:16;;;;;;;1.60;1.20;;;7.70;96.20;;;;;;4984054;28;20575;-70
2022/02/21 10:23:01;;;;;;;1.57;1.20;;;7.70;96.30;;;;;;4987042;28;20568;-69
2022/02/21 10:25:29;;;;;;;1.60;1.20;;;7.70;96.50;;;;;;4984324;28;20461;-70
2022/02/21 10:27:59;;;;;;;1.57;1.20;;;7.70;96.50;;;;;;4983460;28;20864;-70
2022/02/21 10:30:27;;;;;;;1.60;1.23;;;7.80;97.00;;;;;;4982682;28;20540;-70
2022/02/21 10:32:54;;;;;;;1.60;1.17;;;7.90;97.50;;;;;;4985807;28;20822;-70
2022/02/21 10:35:26;;;;;;;1.60;1.20;;;7.90;97.70;;;;;;4990670;28;20548;-70
2022/02/21 10:37:58;;;;;;;1.53;1.10;;;7.80;98.20;;;;;;4990336;28;20581;-71
2022/02/21 10:40:28;;;;;;;1.60;1.20;;;7.60;98.20;;;;;;4994702;28;21041;-69
2022/02/21 10:43:06;;;;;;;1.50;1.10;;;7.50;98.20;;;;;;4987476;28;20493;-68
2022/02/21 10:45:34;;;;;;;1.60;1.20;;;7.30;98.20;;;;;;4987138;28;20567;-69
2022/02/21 10:48:03;;;;;;;1.60;1.30;;;7.20;98.20;;;;;;4987225;28;20461;-68
2022/02/21 10:50:34;;;;;;;1.60;1.30;;;7.10;98.20;;;;;;4992313;28;20859;-69
2022/02/21 10:53:08;;;;;;;1.60;1.20;;;7.00;98.20;;;;;;4986685;28;20877;-69
2022/02/21 10:55:36;;;;;;;1.60;1.20;;;6.80;98.20;;;;;;4987561;28;20469;-69
2022/02/21 10:58:18;;;;;;;1.60;1.20;;;6.70;98.20;;;;;;4987553;28;20854;-69
2022/02/21 11:00:49;;;;;;;1.53;1.30;;;6.70;98.20;;;;;;4984353;28;20457;-72
2022/02/21 11:03:17;;;;;;;1.60;1.20;;;6.70;98.20;;;;;;4987121;28;20484;-70
2022/02/21 11:05:46;;;;;;;1.60;1.30;;;6.70;98.20;;;;;;4986586;28;20465;-68
2022/02/21 11:08:15;;;;;;;1.60;1.40;;;6.80;98.20;;;;;;4984381;28;20497;-69
2022/02/21 11:10:44;;;;;;;1.60;1.30;;;6.80;98.20;;;;;;4986100;28;20908;-70
2022/02/21 11:13:13;;;;;;;1.60;1.30;;;6.80;98.20;;;;;;4986888;28;20461;-69
2022/02/21 11:15:40;;;;;;;1.60;1.27;;;6.80;98.20;;;;;;4983388;28;20465;-70
2022/02/21 11:18:09;;;;;;;1.60;1.30;;;6.90;98.20;;;;;;4986618;28;20468;-69
2022/02/21 11:20:36;;;;;;;1.60;1.30;;;6.90;98.20;;;;;;4989213;28;20488;-73
2022/02/21 11:23:04;;;;;;;1.60;1.30;;;6.90;98.20;;;;;;4987047;28;20496;-69
2022/02/21 11:25:37;;;;;;;1.57;1.10;;;6.90;98.20;;;;;;4986476;28;20512;-69
2022/02/21 11:28:12;;;;;;;1.60;1.30;;;6.90;98.20;;;;;;4987983;28;20947;-69
2022/02/21 11:30:42;;;;;;;1.60;1.30;;;6.80;98.20;;;;;;4985414;28;20472;-69
2022/02/21 11:33:12;;;;;;;1.60;1.20;;;6.60;98.20;;;;;;4987483;28;20460;-69
2022/02/21 11:35:59;;;;;;;1.60;1.30;;;6.50;98.20;;;;;;4985071;28;20899;-70
2022/02/21 11:38:29;;;;;;;1.60;1.23;;;6.50;98.20;;;;;;4983890;28;20496;-70
2022/02/21 11:40:58;;;;;;;1.60;1.30;;;6.40;98.20;;;;;;4983392;28;20539;-70
2022/02/21 11:43:36;;;;;;;1.60;1.20;;;6.40;98.20;;;;;;4984320;28;20493;-70
2022/02/21 11:46:06;;;;;;;1.60;1.20;;;6.30;98.20;;;;;;4986320;28;20540;-71
2022/02/21 11:48:55;;;;;;;1.60;1.33;;;6.20;98.20;;;;;;4987562;28;20492;-68
2022/02/21 11:51:27;;;;;;;1.60;1.30;;;6.20;98.20;;;;;;4988917;28;20519;-70
2022/02/21 11:54:16;;;;;;;1.53;1.20;;;6.20;98.20;;;;;;4983463;28;20958;-69
2022/02/21 11:56:59;;;;;;;1.60;1.40;;;6.10;98.20;;;;;;4984626;28;20999;-69
2022/02/21 11:59:27;;;;;;;1.60;1.43;;;6.10;98.20;;;;;;4985609;28;20489;-71
2022/02/21 12:02:02;;;;;;;1.60;1.30;;;6.10;98.20;;;;;;4987554;28;20975;-70
2022/02/21 12:04:45;;;;;;;1.60;1.30;;;6.00;98.20;;;;;;4985607;28;20465;-69
2022/02/21 12:07:22;;;;;;;1.60;1.30;;;6.00;98.20;;;;;;4986936;28;20476;-70
2022/02/21 12:10:21;;;;;;;1.60;1.30;;;6.00;98.20;;;;;;4984528;28;21207;-70
2022/02/21 12:13:11;;;;;;;1.60;1.30;;;6.00;98.20;;;;;;4985848;28;20472;-71
2022/02/21 12:15:38;;;;;;;1.60;1.27;;;6.00;98.20;;;;;;4984104;28;20477;-70
2022/02/21 12:18:44;;;;;;;1.60;1.30;;;6.10;98.20;;;;;;4990848;28;20917;-69
2022/02/21 12:21:15;;;;;;;1.60;1.30;;;6.10;98.20;;;;;;4982119;28;21425;-69
2022/02/21 12:24:04;;;;;;;1.60;1.20;;;6.30;98.20;;;;;;4985145;28;20501;-69
2022/02/21 12:26:35;;;;;;;1.60;1.20;;;6.40;98.20;;;;;;4985849;28;20567;-70
2022/02/21 12:29:13;;;;;;;1.60;1.43;;;6.50;98.20;;;;;;4984915;28;20489;-70
2022/02/21 12:31:43;;;;;;;1.60;1.27;;;6.60;98.20;;;;;;4984385;28;20765;-70
2022/02/21 12:34:10;;;;;;;1.57;1.20;;;6.70;98.20;;;;;;4980768;28;20788;-71
2022/02/21 12:36:40;;;;;;;1.60;1.23;;;6.80;98.20;;;;;;4983616;28;20833;-70
2022/02/21 12:39:10;;;;;;;1.60;1.30;;;6.80;98.20;;;;;;4984530;28;20495;-71
2022/02/21 12:41:40;;;;;;;1.60;1.20;;;6.80;98.20;;;;;;4981777;28;20469;-70
2022/02/21 12:44:14;;;;;;;1.60;1.30;;;6.80;98.20;;;;;;4985121;28;20559;-69
2022/02/21 12:46:43;;;;;;;1.60;1.20;;;6.80;98.20;;;;;;4986560;28;20469;-70
2022/02/21 12:49:19;;;;;;;1.60;1.27;;;6.80;98.20;;;;;;4980088;28;20498;-70
2022/02/21 12:51:49;;;;;;;1.60;1.30;;;6.80;98.20;;;;;;4984474;28;20504;-70
2022/02/21 12:54:16;;;;;;;1.60;1.30;;;6.80;98.20;;;;;;4986791;28;20472;-69
2022/02/21 12:56:50;;;;;;;1.60;1.30;;;6.70;98.20;;;;;;4981491;28;20465;-69
2022/02/21 12:59:19;;;;;;;1.57;1.20;;;6.80;98.20;;;;;;4982526;28;20489;-70
2022/02/21 13:01:47;;;;;;;1.60;1.30;;;6.80;98.20;;;;;;4982371;28;20856;-70
2022/02/21 13:04:14;;;;;;;1.60;1.30;;;6.90;98.20;;;;;;4984294;28;20477;-69